Time;durP1;ratioP1;P1;durP2;ratioP2;P2;SDS_P1;SDS_P2;PMS_P1;PMS_P2;Temp;Humidity;BMP_temperature;BMP_pressure;BME280_temperature;BME280_humidity;BME280_pressure;Samples;Min_cycle;Max_cycle;Signal;HPM_P1;HPM_P2
2022/08/19 00:00:02;;;;;;;;;;;;;;;27.17;63.50;96170.17;198286;293;197982;-65
2022/08/19 00:01:05;;;;;;;;;;;;;;;27.20;63.27;96160.80;198116;292;197304;-65
2022/08/19 00:02:06;;;;;;;;;;;;;;;27.18;63.17;96161.00;199081;292;97801;-65
2022/08/19 00:03:07;;;;;;;;;;;;;;;27.06;63.25;96163.42;199091;292;98789;-64
2022/08/19 00:04:09;;;;;;;;;;;;;;;27.05;63.43;96164.98;199125;292;99881;-65
2022/08/19 00:05:10;;;;;;;;;;;;;;;27.04;63.54;96160.59;199059;292;97745;-65
2022/08/19 00:06:12;;;;;;;;;;;;;;;27.08;63.45;96164.58;199325;292;99848;-65
2022/08/19 00:07:13;;;;;;;;;;;;;;;27.06;63.66;96168.84;198973;292;199428;-65
2022/08/19 00:08:14;;;;;;;;;;;;;;;27.02;63.64;96164.02;198995;292;196210;-65
2022/08/19 00:09:16;;;;;;;;;;;;;;;27.08;63.60;96172.72;199136;292;96675;-65
2022/08/19 00:10:17;;;;;;;;;;;;;;;27.05;63.61;96171.75;199047;292;193919;-65
2022/08/19 00:11:19;;;;;;;;;;;;;;;27.03;63.59;96172.47;197967;294;282485;-65
2022/08/19 00:12:20;;;;;;;;;;;;;;;27.01;63.61;96172.67;197710;294;199250;-65
2022/08/19 00:13:21;;;;;;;;;;;;;;;27.03;63.73;96166.53;197733;294;196740;-64
2022/08/19 00:14:24;;;;;;;;;;;;;;;27.00;63.75;96162.86;198036;294;97677;-63
2022/08/19 00:15:25;;;;;;;;;;;;;;;26.99;63.77;96161.70;197769;293;191426;-63
2022/08/19 00:16:26;;;;;;;;;;;;;;;27.02;63.70;96159.95;197814;293;280226;-65
2022/08/19 00:17:28;;;;;;;;;;;;;;;27.03;63.65;96161.63;198139;293;198490;-65
2022/08/19 00:18:29;;;;;;;;;;;;;;;26.99;63.67;96156.28;198208;293;196046;-64
2022/08/19 00:19:30;;;;;;;;;;;;;;;27.00;63.71;96157.44;197889;294;98761;-64
2022/08/19 00:20:32;;;;;;;;;;;;;;;27.06;63.66;96155.81;197650;294;191786;-65
2022/08/19 00:21:38;;;;;;;;;;;;;;;27.14;63.56;96158.89;197627;294;278224;-64
2022/08/19 00:22:36;;;;;;;;;;;;;;;27.19;63.42;96158.61;197892;293;166557;-65
2022/08/19 00:23:37;;;;;;;;;;;;;;;27.17;63.42;96162.04;197669;293;195133;-66
2022/08/19 00:24:40;;;;;;;;;;;;;;;27.30;63.28;96162.09;197980;294;100186;-65
2022/08/19 00:25:42;;;;;;;;;;;;;;;27.42;62.98;96165.08;198629;292;191574;-65
2022/08/19 00:26:43;;;;;;;;;;;;;;;27.47;62.84;96161.77;198236;293;277614;-66
2022/08/19 00:27:44;;;;;;;;;;;;;;;27.41;62.85;96162.89;198777;292;197101;-65
2022/08/19 00:28:46;;;;;;;;;;;;;;;27.43;62.77;96168.95;198799;292;195211;-65
2022/08/19 00:29:48;;;;;;;;;;;;;;;27.35;62.89;96159.63;197399;295;97703;-64
2022/08/19 00:30:51;;;;;;;;;;;;;;;27.37;63.12;96165.68;197076;295;98793;-62
2022/08/19 00:31:57;;;;;;;;;;;;;;;27.38;63.41;96165.16;197572;295;69416;-62
2022/08/19 00:32:58;;;;;;;;;;;;;;;27.44;63.04;96163.01;197731;294;160455;-63
2022/08/19 00:33:59;;;;;;;;;;;;;;;27.39;62.80;96161.41;198104;293;280991;-63
2022/08/19 00:35:01;;;;;;;;;;;;;;;27.51;62.48;96158.94;198217;293;199873;-62
2022/08/19 00:36:04;;;;;;;;;;;;;;;27.61;62.12;96158.09;198626;293;195872;-63
2022/08/19 00:37:05;;;;;;;;;;;;;;;27.54;62.06;96153.95;197942;294;98729;-64
2022/08/19 00:38:06;;;;;;;;;;;;;;;27.66;61.82;96155.09;197827;293;98773;-63
2022/08/19 00:39:08;;;;;;;;;;;;;;;27.69;61.71;96156.56;197938;294;100266;-63
2022/08/19 00:40:09;;;;;;;;;;;;;;;27.68;61.66;96144.87;198122;293;98748;-63
2022/08/19 00:41:10;;;;;;;;;;;;;;;27.67;61.62;96146.44;198012;294;98773;-63
2022/08/19 00:42:13;;;;;;;;;;;;;;;27.66;61.63;96146.95;197860;293;195887;-62
2022/08/19 00:43:14;;;;;;;;;;;;;;;27.62;61.65;96142.13;198124;293;195356;-64
2022/08/19 00:44:16;;;;;;;;;;;;;;;27.55;61.71;96151.56;198851;293;98775;-63
2022/08/19 00:45:17;;;;;;;;;;;;;;;27.52;61.78;96148.41;197863;293;194736;-62
2022/08/19 00:46:20;;;;;;;;;;;;;;;27.47;61.90;96145.50;197684;294;278830;-63
2022/08/19 00:47:21;;;;;;;;;;;;;;;27.47;61.95;96146.86;197679;294;199021;-62
2022/08/19 00:48:23;;;;;;;;;;;;;;;27.42;62.02;96141.52;197516;294;196988;-63
2022/08/19 00:49:24;;;;;;;;;;;;;;;27.39;62.09;96145.98;197613;294;98761;-61
2022/08/19 00:50:26;;;;;;;;;;;;;;;27.24;62.29;96139.84;197847;293;99217;-62
2022/08/19 00:51:27;;;;;;;;;;;;;;;27.12;62.63;96141.47;198055;294;97704;-63
2022/08/19 00:52:31;;;;;;;;;;;;;;;27.10;62.81;96140.83;198500;293;98786;-63
2022/08/19 00:53:33;;;;;;;;;;;;;;;27.05;62.90;96140.08;198477;293;278563;-62
2022/08/19 00:54:36;;;;;;;;;;;;;;;26.98;63.06;96139.19;197901;293;197805;-62
2022/08/19 00:55:37;;;;;;;;;;;;;;;26.99;63.12;96132.73;197725;294;197810;-62
2022/08/19 00:56:39;;;;;;;;;;;;;;;27.05;63.05;96132.46;198255;293;99928;-63
2022/08/19 00:57:41;;;;;;;;;;;;;;;26.96;63.15;96135.03;197708;294;192343;-63
2022/08/19 00:58:43;;;;;;;;;;;;;;;26.94;63.21;96139.27;197577;293;277775;-63
2022/08/19 00:59:45;;;;;;;;;;;;;;;26.89;63.34;96135.48;197970;293;197150;-63
2022/08/19 01:00:49;;;;;;;;;;;;;;;26.90;63.42;96133.92;197616;293;196716;-61
2022/08/19 01:01:50;;;;;;;;;;;;;;;26.88;63.49;96137.34;198477;293;69193;-63
2022/08/19 01:02:51;;;;;;;;;;;;;;;26.85;63.51;96137.74;198785;292;98725;-63
2022/08/19 01:03:52;;;;;;;;;;;;;;;26.83;63.60;96141.68;198606;293;98757;-62
2022/08/19 01:04:54;;;;;;;;;;;;;;;26.80;63.67;96135.30;198510;293;97268;-64
2022/08/19 01:05:55;;;;;;;;;;;;;;;26.68;63.85;96139.94;198499;293;278541;-62
2022/08/19 01:06:56;;;;;;;;;;;;;;;26.55;64.14;96145.75;197487;293;197885;-62
2022/08/19 01:07:58;;;;;;;;;;;;;;;26.39;64.50;96151.78;197689;294;194067;-64
2022/08/19 01:08:59;;;;;;;;;;;;;;;26.42;64.52;96149.21;197852;293;99562;-67
2022/08/19 01:10:00;;;;;;;;;;;;;;;26.39;64.64;96142.31;198224;292;192424;-67
2022/08/19 01:11:02;;;;;;;;;;;;;;;26.43;65.03;96150.37;197392;294;276766;-65
2022/08/19 01:12:03;;;;;;;;;;;;;;;26.46;65.55;96153.20;197954;293;197724;-66
2022/08/19 01:13:04;;;;;;;;;;;;;;;26.39;65.66;96141.47;197995;293;196174;-65
2022/08/19 01:14:06;;;;;;;;;;;;;;;26.43;65.86;96142.77;198011;294;96687;-66
2022/08/19 01:15:07;;;;;;;;;;;;;;;26.47;65.86;96144.05;197740;294;191581;-65
2022/08/19 01:16:08;;;;;;;;;;;;;;;26.54;65.72;96147.62;197429;293;278262;-64
2022/08/19 01:17:10;;;;;;;;;;;;;;;26.62;66.17;96146.65;198338;293;197069;-61
2022/08/19 01:18:11;;;;;;;;;;;;;;;26.62;65.83;96140.72;199325;292;196410;-63
2022/08/19 01:19:12;;;;;;;;;;;;;;;26.59;65.35;96141.63;197931;293;98760;-61
2022/08/19 01:20:14;;;;;;;;;;;;;;;26.66;65.01;96139.29;197709;294;193229;-65
2022/08/19 01:21:15;;;;;;;;;;;;;;;26.64;64.72;96144.06;199414;291;277833;-65
2022/08/19 01:22:17;;;;;;;;;;;;;;;26.68;64.60;96137.23;199455;291;196742;-64
2022/08/19 01:23:18;;;;;;;;;;;;;;;26.80;64.35;96136.14;199436;292;196037;-64
2022/08/19 01:24:19;;;;;;;;;;;;;;;26.81;64.26;96130.20;199727;292;98797;-65
2022/08/19 01:25:21;;;;;;;;;;;;;;;26.68;64.33;96126.39;199562;292;192218;-63
2022/08/19 01:26:22;;;;;;;;;;;;;;;26.61;64.49;96120.08;200002;291;277935;-64
2022/08/19 01:27:24;;;;;;;;;;;;;;;26.51;64.72;96122.81;198793;292;198588;-64
2022/08/19 01:28:28;;;;;;;;;;;;;;;26.66;64.54;96120.33;198730;292;195343;-64
2022/08/19 01:29:29;;;;;;;;;;;;;;;26.67;64.47;96119.81;199033;292;97180;-65
2022/08/19 01:30:30;;;;;;;;;;;;;;;26.74;64.38;96116.61;198345;293;98926;-64
2022/08/19 01:31:32;;;;;;;;;;;;;;;26.80;64.42;96119.05;199065;292;98776;-65
2022/08/19 01:32:33;;;;;;;;;;;;;;;26.73;64.40;96115.77;198641;292;191437;-64
2022/08/19 01:33:34;;;;;;;;;;;;;;;26.78;64.32;96122.80;198930;292;282105;-64
2022/08/19 01:34:36;;;;;;;;;;;;;;;26.77;64.21;96118.92;198973;292;198514;-64
2022/08/19 01:35:37;;;;;;;;;;;;;;;26.59;64.48;96119.95;198550;292;195025;-64
2022/08/19 01:36:38;;;;;;;;;;;;;;;26.44;64.74;96118.72;198332;294;97799;-64
2022/08/19 01:37:40;;;;;;;;;;;;;;;26.48;64.78;96109.14;199106;292;193275;-64
2022/08/19 01:38:42;;;;;;;;;;;;;;;26.44;64.76;96110.59;198479;292;274336;-64
2022/08/19 01:39:44;;;;;;;;;;;;;;;26.49;64.69;96112.17;199473;291;197785;-62
2022/08/19 01:40:45;;;;;;;;;;;;;;;26.41;64.79;96117.76;199160;291;195048;-63
2022/08/19 01:41:46;;;;;;;;;;;;;;;26.40;64.86;96118.79;198575;293;98761;-62
2022/08/19 01:42:48;;;;;;;;;;;;;;;26.35;64.90;96118.02;199253;291;192481;-63
2022/08/19 01:43:50;;;;;;;;;;;;;;;26.29;65.03;96110.64;199357;291;275733;-63
2022/08/19 01:45:56;;;;;;;;;;;;;;;26.28;65.08;96113.03;202666;287;71404;-64
2022/08/19 01:46:57;;;;;;;;;;;;;;;26.22;65.26;96104.36;201102;289;193936;-64
2022/08/19 01:47:58;;;;;;;;;;;;;;;26.18;65.57;96103.08;198206;292;276321;-64
2022/08/19 01:49:00;;;;;;;;;;;;;;;26.09;66.21;96114.54;198750;292;196783;-63
2022/08/19 01:50:01;;;;;;;;;;;;;;;26.11;66.23;96108.94;199345;291;195356;-63
2022/08/19 01:51:02;;;;;;;;;;;;;;;26.11;66.32;96117.05;199706;292;98913;-63
2022/08/19 01:52:04;;;;;;;;;;;;;;;26.05;66.50;96111.90;199044;291;192636;-62
2022/08/19 01:53:05;;;;;;;;;;;;;;;26.08;66.57;96113.38;198226;293;278426;-66
2022/08/19 01:54:06;;;;;;;;;;;;;;;26.07;66.57;96115.77;197810;293;198678;-64
2022/08/19 01:55:08;;;;;;;;;;;;;;;26.10;66.53;96114.86;198306;293;197643;-65
2022/08/19 01:56:09;;;;;;;;;;;;;;;26.15;66.47;96126.46;198349;293;98546;-66
2022/08/19 01:57:11;;;;;;;;;;;;;;;26.21;66.36;96123.50;197483;294;191496;-64
2022/08/19 01:58:12;;;;;;;;;;;;;;;26.21;66.46;96126.20;197172;295;276596;-65
2022/08/19 01:59:13;;;;;;;;;;;;;;;26.25;66.50;96124.23;198062;293;198932;-66
2022/08/19 02:00:15;;;;;;;;;;;;;;;26.27;66.67;96133.00;197313;294;197182;-65
2022/08/19 02:01:17;;;;;;;;;;;;;;;26.31;66.54;96131.62;197834;294;98785;-65
2022/08/19 02:02:18;;;;;;;;;;;;;;;26.35;66.15;96134.77;197814;294;98517;-65
2022/08/19 02:03:19;;;;;;;;;;;;;;;26.36;65.95;96126.46;198148;293;98788;-66
2022/08/19 02:04:21;;;;;;;;;;;;;;;26.35;66.04;96129.36;198396;292;98793;-65
2022/08/19 02:05:22;;;;;;;;;;;;;;;26.39;65.96;96132.00;198378;294;98790;-66
2022/08/19 02:06:24;;;;;;;;;;;;;;;26.43;66.05;96129.23;197706;294;199094;-65
2022/08/19 02:07:25;;;;;;;;;;;;;;;26.46;65.92;96139.67;198533;292;195295;-65
2022/08/19 02:08:26;;;;;;;;;;;;;;;26.46;65.98;96139.67;197192;295;98023;-65
2022/08/19 02:09:28;;;;;;;;;;;;;;;26.50;65.85;96139.56;197493;294;193048;-65
2022/08/19 02:10:29;;;;;;;;;;;;;;;26.59;65.66;96145.69;197450;294;279259;-65
2022/08/19 02:11:33;;;;;;;;;;;;;;;26.49;65.52;96147.37;197693;292;195708;-64
2022/08/19 02:12:35;;;;;;;;;;;;;;;26.49;65.47;96147.88;198084;292;196057;-64
2022/08/19 02:13:36;;;;;;;;;;;;;;;26.44;65.46;96145.80;197299;293;97750;-67
2022/08/19 02:14:38;;;;;;;;;;;;;;;26.52;65.48;96141.56;198327;292;100116;-64
2022/08/19 02:15:39;;;;;;;;;;;;;;;26.56;65.35;96144.20;199327;292;98777;-63
2022/08/19 02:16:40;;;;;;;;;;;;;;;26.62;65.31;96144.78;198128;293;97776;-64
2022/08/19 02:17:42;;;;;;;;;;;;;;;26.62;65.26;96138.52;198098;293;98632;-64
2022/08/19 02:18:43;;;;;;;;;;;;;;;26.64;65.20;96137.30;197197;295;99928;-65
2022/08/19 02:19:44;;;;;;;;;;;;;;;26.60;65.41;96144.66;196871;295;196236;-63
2022/08/19 02:20:47;;;;;;;;;;;;;;;26.52;65.35;96142.92;197147;295;99500;-64
2022/08/19 02:21:48;;;;;;;;;;;;;;;26.43;65.79;96141.41;196125;296;191784;-64
2022/08/19 02:22:50;;;;;;;;;;;;;;;26.43;65.83;96138.70;196316;296;278512;-65
2022/08/19 02:23:51;;;;;;;;;;;;;;;26.32;67.12;96138.70;196385;296;195580;-65
2022/08/19 02:24:52;;;;;;;;;;;;;;;26.33;67.10;96139.03;196406;295;197547;-64
2022/08/19 02:25:54;;;;;;;;;;;;;;;26.39;66.54;96136.06;197160;295;99222;-65
2022/08/19 02:26:55;;;;;;;;;;;;;;;26.45;66.21;96135.80;197098;294;191863;-66
2022/08/19 02:27:56;;;;;;;;;;;;;;;26.46;65.97;96129.36;197056;295;277312;-65
2022/08/19 02:28:58;;;;;;;;;;;;;;;26.48;65.81;96122.68;196951;295;198748;-65
2022/08/19 02:29:59;;;;;;;;;;;;;;;26.52;65.66;96115.00;197091;295;197123;-65
2022/08/19 02:31:02;;;;;;;;;;;;;;;26.39;66.73;96116.59;197339;295;97788;-64
2022/08/19 02:32:04;;;;;;;;;;;;;;;26.39;66.30;96111.18;197085;294;193843;-65
2022/08/19 02:33:05;;;;;;;;;;;;;;;26.35;66.92;96118.53;197042;295;278256;-65
2022/08/19 02:34:06;;;;;;;;;;;;;;;26.41;66.77;96119.11;197147;295;198346;-65
2022/08/19 02:35:54;;;;;;;;;;;;;;;26.39;66.30;96127.94;202526;287;71366;-65
2022/08/19 02:36:55;;;;;;;;;;;;;;;26.38;66.14;96134.39;199058;292;193835;-63
2022/08/19 02:39:16;;;;;;;;;;;;;;;26.45;65.83;96130.39;199394;292;158136;-64
2022/08/19 02:40:17;;;;;;;;;;;;;;;26.49;65.71;96141.95;199433;292;196447;-64
2022/08/19 02:41:19;;;;;;;;;;;;;;;26.48;65.67;96137.57;199113;292;98786;-62
2022/08/19 02:42:20;;;;;;;;;;;;;;;26.50;65.65;96146.34;198177;293;98732;-64
2022/08/19 02:43:21;;;;;;;;;;;;;;;26.51;65.61;96149.88;199006;292;98789;-64
2022/08/19 02:44:23;;;;;;;;;;;;;;;26.48;65.52;96151.11;199165;292;96645;-65
2022/08/19 02:45:24;;;;;;;;;;;;;;;26.51;65.38;96152.08;199331;292;97749;-64
2022/08/19 02:46:26;;;;;;;;;;;;;;;26.54;65.29;96153.03;199597;292;98788;-64
2022/08/19 02:47:28;;;;;;;;;;;;;;;26.43;65.42;96149.53;199409;292;197366;-64
2022/08/19 02:48:29;;;;;;;;;;;;;;;26.47;65.43;96152.17;199776;292;98850;-64
2022/08/19 02:49:31;;;;;;;;;;;;;;;26.52;65.36;96144.27;199346;292;194152;-64
2022/08/19 02:50:32;;;;;;;;;;;;;;;26.51;65.40;96143.95;199402;292;277354;-63
2022/08/19 02:51:33;;;;;;;;;;;;;;;26.50;65.44;96146.34;199470;291;198255;-64
2022/08/19 02:52:35;;;;;;;;;;;;;;;26.49;65.40;96147.88;199476;292;196042;-63
2022/08/19 02:53:37;;;;;;;;;;;;;;;26.49;65.36;96150.08;199474;292;98860;-64
2022/08/19 02:54:38;;;;;;;;;;;;;;;26.50;65.25;96152.27;199118;292;191961;-64
2022/08/19 02:55:40;;;;;;;;;;;;;;;26.45;65.30;96154.23;199187;292;276292;-64
2022/08/19 02:56:41;;;;;;;;;;;;;;;26.45;65.36;96162.36;199121;292;196417;-64
2022/08/19 02:57:42;;;;;;;;;;;;;;;26.45;65.42;96162.36;198175;292;194918;-64
2022/08/19 02:58:44;;;;;;;;;;;;;;;26.38;65.36;96162.81;198777;293;99024;-64
2022/08/19 02:59:45;;;;;;;;;;;;;;;26.41;65.37;96166.48;198452;293;191798;-64
2022/08/19 03:00:46;;;;;;;;;;;;;;;26.37;65.42;96167.91;199365;292;277143;-63
2022/08/19 03:01:48;;;;;;;;;;;;;;;26.34;65.45;96160.17;199378;292;199360;-64
2022/08/19 03:02:49;;;;;;;;;;;;;;;26.32;65.64;96161.71;198414;292;195287;-64
2022/08/19 03:03:50;;;;;;;;;;;;;;;26.30;65.69;96164.30;198593;293;97656;-63
2022/08/19 03:04:52;;;;;;;;;;;;;;;26.25;65.81;96165.35;198194;293;191408;-63
2022/08/19 03:05:53;;;;;;;;;;;;;;;26.25;65.84;96168.90;198974;292;283308;-64
2022/08/19 03:06:54;;;;;;;;;;;;;;;26.22;65.94;96171.19;199079;292;196935;-65
2022/08/19 03:07:56;;;;;;;;;;;;;;;26.24;65.89;96177.20;199079;292;196491;-65
2022/08/19 03:08:57;;;;;;;;;;;;;;;26.19;66.03;96179.69;199627;292;98510;-65
2022/08/19 03:09:58;;;;;;;;;;;;;;;26.19;66.16;96174.27;199465;292;192605;-64
2022/08/19 03:11:00;;;;;;;;;;;;;;;26.22;66.08;96176.59;198981;292;276909;-64
2022/08/19 03:12:01;;;;;;;;;;;;;;;26.24;66.05;96177.20;198697;292;196618;-64
2022/08/19 03:13:02;;;;;;;;;;;;;;;26.21;66.05;96172.21;199560;291;196911;-64
2022/08/19 03:14:04;;;;;;;;;;;;;;;26.20;66.12;96175.95;199006;293;99913;-64
2022/08/19 03:15:05;;;;;;;;;;;;;;;26.18;66.17;96169.89;199450;291;191420;-63
2022/08/19 03:16:07;;;;;;;;;;;;;;;26.18;66.14;96169.89;199388;292;276304;-62
2022/08/19 03:17:08;;;;;;;;;;;;;;;26.16;66.12;96171.95;199727;291;199061;-64
2022/08/19 03:18:09;;;;;;;;;;;;;;;26.13;66.18;96169.63;199496;292;195398;-63
2022/08/19 03:19:11;;;;;;;;;;;;;;;26.15;66.29;96170.27;199303;292;97232;-64
2022/08/19 03:20:12;;;;;;;;;;;;;;;26.18;66.19;96164.48;198212;292;192454;-64
2022/08/19 03:21:14;;;;;;;;;;;;;;;26.21;66.18;96165.45;198130;293;280663;-68
2022/08/19 03:22:15;;;;;;;;;;;;;;;26.17;66.29;96161.45;197673;293;197660;-68
2022/08/19 03:23:16;;;;;;;;;;;;;;;26.23;66.36;96163.39;198582;293;194089;-67
2022/08/19 03:24:18;;;;;;;;;;;;;;;26.28;66.31;96159.55;198665;293;98856;-66
2022/08/19 03:25:19;;;;;;;;;;;;;;;26.32;66.25;96152.75;197995;293;191658;-66
2022/08/19 03:26:21;;;;;;;;;;;;;;;26.28;66.28;96152.78;198117;294;280562;-68
2022/08/19 03:27:22;;;;;;;;;;;;;;;26.32;66.20;96155.47;198117;294;197808;-67
2022/08/19 03:28:24;;;;;;;;;;;;;;;26.34;66.16;96156.11;198187;292;196627;-66
2022/08/19 03:30:00;;;;;;;;;;;;;;;26.39;66.41;96157.20;202181;287;71398;-63
2022/08/19 03:31:01;;;;;;;;;;;;;;;26.45;66.53;96156.94;199082;291;193684;-64
2022/08/19 03:32:03;;;;;;;;;;;;;;;26.48;66.66;96157.07;199299;291;278317;-63
2022/08/19 03:33:04;;;;;;;;;;;;;;;26.59;66.34;96159.23;198578;292;196840;-64
2022/08/19 03:34:05;;;;;;;;;;;;;;;26.68;65.88;96158.89;199422;291;197199;-64
2022/08/19 03:35:07;;;;;;;;;;;;;;;26.67;65.82;96163.98;199218;292;98796;-63
2022/08/19 03:36:08;;;;;;;;;;;;;;;26.67;66.49;96162.63;198077;294;191757;-63
2022/08/19 03:37:10;;;;;;;;;;;;;;;26.64;66.21;96172.50;198369;292;279390;-65
2022/08/19 03:38:11;;;;;;;;;;;;;;;26.44;67.22;96172.86;198499;293;198093;-64
2022/08/19 03:39:12;;;;;;;;;;;;;;;26.54;67.00;96173.86;196851;293;195143;-64
2022/08/19 03:40:14;;;;;;;;;;;;;;;26.65;66.41;96178.23;197898;294;99200;-64
2022/08/19 03:41:15;;;;;;;;;;;;;;;26.71;65.80;96175.27;198441;292;191936;-63
2022/08/19 03:42:16;;;;;;;;;;;;;;;26.68;65.82;96176.50;198499;292;276467;-63
2022/08/19 03:43:18;;;;;;;;;;;;;;;26.69;65.68;96176.81;198634;292;195733;-64
2022/08/19 03:44:25;;;;;;;;;;;;;;;26.70;65.47;96179.01;198653;292;195665;-64
2022/08/19 03:45:23;;;;;;;;;;;;;;;26.64;65.74;96179.78;199726;291;73132;-64
2022/08/19 03:46:24;;;;;;;;;;;;;;;26.67;65.49;96175.34;198631;292;98784;-64
2022/08/19 03:47:26;;;;;;;;;;;;;;;26.66;65.35;96169.08;199445;292;98699;-63
2022/08/19 03:48:27;;;;;;;;;;;;;;;26.68;65.32;96162.95;198543;293;98824;-63
2022/08/19 03:49:28;;;;;;;;;;;;;;;26.63;65.17;96169.47;197917;293;278422;-64
2022/08/19 03:50:30;;;;;;;;;;;;;;;26.60;65.35;96169.02;197496;294;196603;-64
2022/08/19 03:51:31;;;;;;;;;;;;;;;26.64;65.39;96174.37;198661;292;196025;-64
2022/08/19 03:52:32;;;;;;;;;;;;;;;26.54;65.71;96173.86;198495;293;98740;-65
2022/08/19 03:53:34;;;;;;;;;;;;;;;26.60;66.02;96171.22;198130;293;191769;-64
2022/08/19 03:54:35;;;;;;;;;;;;;;;26.66;66.20;96176.37;198194;292;278291;-64
2022/08/19 03:55:36;;;;;;;;;;;;;;;26.64;65.98;96174.37;198102;293;197670;-64
2022/08/19 03:56:38;;;;;;;;;;;;;;;26.65;65.61;96187.72;199475;291;196837;-69
2022/08/19 03:57:39;;;;;;;;;;;;;;;26.72;65.44;96179.13;197643;294;97740;-63
2022/08/19 03:58:40;;;;;;;;;;;;;;;26.75;65.13;96176.52;198388;292;192493;-62
2022/08/19 03:59:42;;;;;;;;;;;;;;;26.69;65.00;96178.17;198693;292;277423;-61
2022/08/19 04:00:43;;;;;;;;;;;;;;;26.72;64.90;96171.01;197780;293;196399;-62
2022/08/19 04:01:45;;;;;;;;;;;;;;;26.75;64.78;96177.36;199198;292;195812;-62
2022/08/19 04:02:46;;;;;;;;;;;;;;;26.76;64.73;96173.61;198068;293;99583;-61
2022/08/19 04:03:48;;;;;;;;;;;;;;;26.72;64.74;96172.88;198558;292;100152;-61
2022/08/19 04:04:49;;;;;;;;;;;;;;;26.71;64.78;96174.75;197843;294;98668;-62
2022/08/19 04:05:50;;;;;;;;;;;;;;;26.69;64.86;96171.41;198399;293;97755;-62
2022/08/19 04:06:52;;;;;;;;;;;;;;;26.72;64.81;96171.53;199090;292;99212;-62
2022/08/19 04:07:53;;;;;;;;;;;;;;;26.74;64.75;96173.48;199164;292;98732;-62
2022/08/19 04:08:55;;;;;;;;;;;;;;;26.69;64.75;96170.05;198768;292;195335;-62
2022/08/19 04:09:56;;;;;;;;;;;;;;;26.62;64.83;96170.50;198490;293;97725;-61
2022/08/19 04:10:57;;;;;;;;;;;;;;;26.54;65.06;96173.34;198639;292;190372;-62
2022/08/19 04:11:59;;;;;;;;;;;;;;;26.57;65.07;96172.95;198261;293;281705;-61
2022/08/19 04:13:00;;;;;;;;;;;;;;;26.50;65.16;96168.00;198539;293;198610;-62
2022/08/19 04:14:01;;;;;;;;;;;;;;;26.48;65.24;96167.35;199101;292;196318;-62
2022/08/19 04:15:03;;;;;;;;;;;;;;;26.52;65.22;96165.09;199114;292;97373;-61
2022/08/19 04:16:05;;;;;;;;;;;;;;;26.49;65.24;96160.91;198744;292;192431;-62
2022/08/19 04:17:06;;;;;;;;;;;;;;;26.45;65.32;96168.29;198614;292;277669;-63
2022/08/19 04:18:07;;;;;;;;;;;;;;;26.25;65.64;96163.48;196860;294;197075;-61
2022/08/19 04:19:09;;;;;;;;;;;;;;;26.19;65.91;96159.39;197961;292;196154;-62
2022/08/19 04:20:10;;;;;;;;;;;;;;;26.27;65.91;96163.29;198469;293;97406;-62
2022/08/19 04:21:11;;;;;;;;;;;;;;;26.21;65.95;96162.23;198444;293;98668;-62
2022/08/19 04:22:31;;;;;;;;;;;;;;;26.21;66.10;96160.03;202545;287;71386;-62
2022/08/19 04:23:32;;;;;;;;;;;;;;;26.21;66.29;96162.74;198566;292;192349;-63
2022/08/19 04:24:33;;;;;;;;;;;;;;;26.17;66.45;96156.03;199101;292;278670;-63
2022/08/19 04:25:35;;;;;;;;;;;;;;;26.14;66.69;96149.66;199234;292;198481;-61
2022/08/19 04:26:37;;;;;;;;;;;;;;;26.11;66.82;96150.88;199041;292;194250;-62
2022/08/19 04:27:38;;;;;;;;;;;;;;;26.16;66.87;96151.66;199482;292;98788;-63
2022/08/19 04:28:39;;;;;;;;;;;;;;;26.10;67.39;96151.91;198384;292;97747;-63
2022/08/19 04:29:41;;;;;;;;;;;;;;;26.16;67.51;96150.30;198942;292;100188;-62
2022/08/19 04:30:42;;;;;;;;;;;;;;;26.15;67.21;96148.62;197779;294;98801;-63
2022/08/19 04:31:44;;;;;;;;;;;;;;;26.23;66.92;96153.91;198195;293;98752;-63
2022/08/19 04:32:46;;;;;;;;;;;;;;;26.28;66.53;96148.73;198977;292;198797;-62
2022/08/19 04:33:47;;;;;;;;;;;;;;;26.31;66.26;96161.39;198973;292;195201;-63
2022/08/19 04:34:49;;;;;;;;;;;;;;;26.30;66.09;96157.01;199528;292;97773;-62
2022/08/19 04:35:50;;;;;;;;;;;;;;;26.28;66.05;96160.91;199448;292;190578;-62
2022/08/19 04:36:51;;;;;;;;;;;;;;;26.26;66.14;96165.67;198155;293;277573;-63
2022/08/19 04:37:53;;;;;;;;;;;;;;;26.23;66.18;96160.13;198551;293;199384;-63
2022/08/19 04:38:54;;;;;;;;;;;;;;;26.21;66.21;96162.74;198416;293;195309;-64
2022/08/19 04:42:40;;;;;;;;;;;;;;;26.09;66.42;96164.59;197577;294;240575;-62
2022/08/19 04:43:42;;;;;;;;;;;;;;;26.12;66.46;96163.38;198584;292;199228;-63
2022/08/19 04:44:43;;;;;;;;;;;;;;;26.08;66.51;96164.79;198575;293;196179;-62
2022/08/19 04:45:44;;;;;;;;;;;;;;;26.09;66.52;96164.59;198898;293;97321;-63
2022/08/19 04:46:47;;;;;;;;;;;;;;;26.11;66.51;96165.77;198226;293;194258;-63
2022/08/19 04:47:48;;;;;;;;;;;;;;;26.12;66.51;96169.30;198008;293;276556;-63
2022/08/19 04:48:49;;;;;;;;;;;;;;;26.04;66.55;96170.26;197660;293;197792;-63
2022/08/19 04:49:51;;;;;;;;;;;;;;;26.00;66.66;96177.92;198117;293;196935;-63
2022/08/19 04:50:57;;;;;;;;;;;;;;;26.02;66.67;96179.92;199257;292;97837;-63
2022/08/19 04:51:55;;;;;;;;;;;;;;;25.95;66.79;96180.39;198450;292;160797;-63
2022/08/19 04:52:56;;;;;;;;;;;;;;;25.90;66.94;96180.64;198205;292;276331;-64
2022/08/19 04:53:59;;;;;;;;;;;;;;;25.91;67.02;96179.61;197920;293;199147;-63
2022/08/19 04:55:00;;;;;;;;;;;;;;;25.92;66.99;96175.36;198608;293;196468;-63
2022/08/19 04:56:01;;;;;;;;;;;;;;;25.90;67.02;96173.36;198235;293;98772;-63
2022/08/19 04:57:05;;;;;;;;;;;;;;;25.83;67.15;96175.14;199458;292;194713;-62
2022/08/19 04:58:06;;;;;;;;;;;;;;;25.85;67.15;96170.38;199355;291;251635;-61
2022/08/19 04:59:08;;;;;;;;;;;;;;;25.78;67.25;96172.17;198806;292;196694;-62
2022/08/19 05:00:09;;;;;;;;;;;;;;;25.82;67.36;96177.53;199474;292;195070;-62
2022/08/19 05:01:11;;;;;;;;;;;;;;;25.84;67.35;96174.63;199694;292;98820;-62
2022/08/19 05:02:12;;;;;;;;;;;;;;;25.70;67.53;96169.61;199102;291;191425;-63
2022/08/19 05:03:16;;;;;;;;;;;;;;;25.65;67.71;96170.69;199052;292;276097;-62
2022/08/19 05:04:17;;;;;;;;;;;;;;;25.65;67.77;96168.82;199178;292;165668;-62
2022/08/19 05:05:19;;;;;;;;;;;;;;;25.60;67.83;96173.09;199039;292;196028;-63
2022/08/19 05:06:20;;;;;;;;;;;;;;;25.65;67.82;96174.23;199211;292;99227;-63
2022/08/19 05:07:22;;;;;;;;;;;;;;;25.66;67.78;96174.55;199215;292;100452;-61
2022/08/19 05:08:23;;;;;;;;;;;;;;;25.60;67.88;96179.84;199402;292;97743;-62
2022/08/19 05:09:24;;;;;;;;;;;;;;;25.51;68.02;96174.21;199086;292;98813;-61
2022/08/19 05:10:26;;;;;;;;;;;;;;;25.57;68.09;96176.16;199419;292;100164;-67
2022/08/19 05:11:28;;;;;;;;;;;;;;;25.61;68.22;96177.47;199074;291;195683;-63
2022/08/19 05:12:29;;;;;;;;;;;;;;;25.60;68.31;96182.03;199043;292;196138;-62
2022/08/19 05:13:31;;;;;;;;;;;;;;;25.58;68.32;96181.38;199134;292;97813;-62
2022/08/19 05:14:32;;;;;;;;;;;;;;;25.57;68.25;96183.77;199139;292;190528;-62
2022/08/19 05:15:34;;;;;;;;;;;;;;;25.54;68.27;96184.14;199040;292;278013;-63
2022/08/19 05:16:35;;;;;;;;;;;;;;;25.46;68.29;96179.38;198348;293;197819;-62
2022/08/19 05:17:37;;;;;;;;;;;;;;;25.51;68.33;96182.32;198470;293;196132;-62
2022/08/19 05:22:37;;;;;;;;;;;;;;;25.43;68.54;96185.48;198700;293;159711;-62
2022/08/19 05:23:38;;;;;;;;;;;;;;;25.47;68.50;96189.16;198461;293;195710;-62
2022/08/19 05:24:39;;;;;;;;;;;;;;;25.40;68.52;96188.55;198936;292;98777;-62
2022/08/19 05:25:41;;;;;;;;;;;;;;;25.46;68.51;96188.83;199378;292;193426;-60
2022/08/19 05:26:42;;;;;;;;;;;;;;;25.39;68.59;96190.09;199131;292;276310;-62
2022/08/19 05:27:43;;;;;;;;;;;;;;;25.38;68.65;96193.82;199177;292;198616;-63